createdAt,value
2018-11-29T00:02:05.498Z,10.40
2018-11-29T00:06:13.831Z,9.73
2018-11-29T00:10:20.529Z,9.90
2018-11-29T00:14:28.028Z,10.17
2018-11-29T00:18:37.318Z,10.47
2018-11-29T00:22:44.437Z,10.33
2018-11-29T00:26:50.884Z,8.03
2018-11-29T00:30:58.885Z,9.63
2018-11-29T00:35:05.953Z,9.43
2018-11-29T00:39:12.914Z,10.47
2018-11-29T00:43:19.361Z,9.83
2018-11-29T00:47:26.751Z,10.27
2018-11-29T00:51:33.223Z,8.43
2018-11-29T00:55:40.938Z,8.13
2018-11-29T00:59:47.481Z,8.13
2018-11-29T01:03:55.287Z,8.13
2018-11-29T01:08:01.747Z,8.93
2018-11-29T01:12:08.840Z,9.80
2018-11-29T01:16:17.984Z,8.33
2018-11-29T01:20:24.980Z,8.70
2018-11-29T01:24:31.466Z,9.67
2018-11-29T01:28:38.251Z,7.37
2018-11-29T01:32:45.070Z,8.90
2018-11-29T01:36:52.746Z,8.93
2018-11-29T01:41:01.935Z,8.30
2018-11-29T01:45:09.437Z,7.63
2018-11-29T01:49:15.987Z,6.80
2018-11-29T01:53:23.228Z,7.20
2018-11-29T01:57:29.749Z,5.00
2018-11-29T02:01:36.472Z,6.77
2018-11-29T02:05:43.826Z,7.63
2018-11-29T02:09:52.015Z,8.67
2018-11-29T02:13:58.597Z,7.90
2018-11-29T02:18:06.265Z,8.27
2018-11-29T02:22:12.752Z,6.70
2018-11-29T02:26:20.286Z,7.83
2018-11-29T02:30:26.763Z,9.40
2018-11-29T02:34:33.436Z,7.60
2018-11-29T02:38:40.884Z,5.73
2018-11-29T02:42:48.960Z,6.33
2018-11-29T02:46:55.422Z,3.60
2018-11-29T02:51:03.337Z,7.13
2018-11-29T02:55:10.633Z,6.03
2018-11-29T02:59:18.192Z,7.07
2018-11-29T03:03:24.745Z,7.60
2018-11-29T03:07:31.304Z,5.50
2018-11-29T03:11:38.146Z,4.40
2018-11-29T03:15:45.809Z,6.97
2018-11-29T03:19:52.388Z,5.27
2018-11-29T03:23:59.003Z,5.23
2018-11-29T03:28:05.476Z,6.70
2018-11-29T03:32:14.188Z,6.67
2018-11-29T03:36:20.730Z,7.20
2018-11-29T03:40:27.463Z,5.03
2018-11-29T03:44:33.894Z,5.67
2018-11-29T03:48:41.818Z,4.07
2018-11-29T03:52:51.285Z,6.67
2018-11-29T03:56:59.634Z,5.67
2018-11-29T04:01:06.296Z,6.77
2018-11-29T04:05:13.215Z,6.60
2018-11-29T04:09:19.765Z,6.43
2018-11-29T04:13:27.363Z,6.67
2018-11-29T04:17:40.367Z,6.20
2018-11-29T04:21:41.790Z,5.90
2018-11-29T04:25:48.234Z,4.13
2018-11-29T04:29:55.010Z,7.23
2018-11-29T04:34:01.503Z,6.20
2018-11-29T04:38:09.139Z,5.80
2018-11-29T04:42:15.589Z,5.37
2018-11-29T04:46:42.196Z,4.47
2018-11-29T04:50:49.849Z,5.67
2018-11-29T04:54:56.864Z,6.40
2018-11-29T04:59:03.452Z,5.80
2018-11-29T05:03:10.231Z,6.53
2018-11-29T05:07:16.669Z,7.87
2018-11-29T05:11:26.572Z,8.13
2018-11-29T05:15:33.057Z,6.33
2018-11-29T05:19:39.699Z,7.83
2018-11-29T05:23:46.225Z,5.70
2018-11-29T05:27:56.016Z,6.33
2018-11-29T05:32:01.008Z,6.20
2018-11-29T05:36:10.604Z,8.67
2018-11-29T05:40:17.111Z,4.07
2018-11-29T05:44:24.326Z,6.97
2018-11-29T05:48:30.791Z,6.83
2018-11-29T05:52:37.627Z,8.50
2018-11-29T05:56:44.147Z,7.43
2018-11-29T06:00:52.613Z,8.33
2018-11-29T06:05:02.118Z,8.23
2018-11-29T06:09:11.055Z,7.57
2018-11-29T06:13:17.585Z,6.77
2018-11-29T06:17:24.656Z,3.43
2018-11-29T06:21:31.156Z,6.50
2018-11-29T06:25:38.582Z,7.00
2018-11-29T06:29:45.049Z,7.37
2018-11-29T06:33:53.831Z,7.77
2018-11-29T06:38:00.401Z,9.60
2018-11-29T06:42:07.592Z,7.30
2018-11-29T06:46:14.059Z,8.50
2018-11-29T06:50:21.749Z,6.67
2018-11-29T06:54:28.289Z,9.70
2018-11-29T06:58:35.080Z,6.63
2018-11-29T07:02:41.532Z,8.97
2018-11-29T07:06:49.092Z,9.90
2018-11-29T07:10:56.813Z,8.53
2018-11-29T07:15:06.152Z,9.63
2018-11-29T07:19:15.029Z,8.37
2018-11-29T07:23:20.794Z,9.80
2018-11-29T07:27:27.302Z,9.07
2018-11-29T07:31:34.041Z,9.43
2018-11-29T07:35:40.633Z,12.43
2018-11-29T07:39:48.204Z,11.47
2018-11-29T07:43:55.693Z,8.83
2018-11-29T07:48:05.262Z,12.60
2018-11-29T07:52:12.705Z,12.17
2018-11-29T07:56:19.689Z,13.10
2018-11-29T08:00:27.167Z,8.33
2018-11-29T08:04:33.929Z,11.27
2018-11-29T08:08:51.401Z,10.53
2018-11-29T08:12:58.741Z,8.90
2018-11-29T08:17:06.968Z,11.77
2018-11-29T08:21:14.614Z,11.17
2018-11-29T08:25:21.193Z,12.33
2018-11-29T08:29:29.502Z,9.17
2018-11-29T08:33:35.810Z,9.30
2018-11-29T08:37:43.533Z,11.57
2018-11-29T08:41:50.044Z,8.97
2018-11-29T08:45:57.628Z,9.83
2018-11-29T08:50:04.172Z,10.47
2018-11-29T08:54:12.139Z,9.27
2018-11-29T08:58:18.717Z,10.47
2018-11-29T09:02:25.538Z,9.33
2018-11-29T09:06:32.020Z,8.23
2018-11-29T09:10:38.843Z,9.30
2018-11-29T09:14:46.511Z,8.33
2018-11-29T09:18:53.419Z,6.90
2018-11-29T09:23:00.751Z,10.07
2018-11-29T09:27:08.411Z,10.33
2018-11-29T09:31:18.325Z,8.20
2018-11-29T09:35:26.521Z,7.73
2018-11-29T09:39:33.132Z,6.67
2018-11-29T09:43:39.877Z,6.73
2018-11-29T09:47:47.803Z,8.03
2018-11-29T09:51:56.961Z,10.23
2018-11-29T09:56:03.546Z,7.40
2018-11-29T10:00:28.243Z,8.23
2018-11-29T10:04:32.097Z,7.53
2018-11-29T10:08:40.349Z,7.73
2018-11-29T10:12:46.884Z,5.13
2018-11-29T10:16:53.708Z,7.77
2018-11-29T10:21:01.164Z,7.87
2018-11-29T10:25:10.611Z,7.10
2018-11-29T10:29:17.863Z,8.70
2018-11-29T10:33:24.860Z,8.90
2018-11-29T10:37:32.175Z,8.17
2018-11-29T10:41:40.025Z,7.40
2018-11-29T10:45:47.490Z,7.97
2018-11-29T10:49:58.493Z,7.80
2018-11-29T10:54:07.909Z,8.23
2018-11-29T10:58:13.816Z,7.53
2018-11-29T11:02:30.689Z,7.43
2018-11-29T11:06:39.880Z,8.73
2018-11-29T11:10:46.377Z,7.57
2018-11-29T11:14:55.289Z,8.40
2018-11-29T11:19:02.829Z,9.47
2018-11-29T11:23:09.888Z,7.23
2018-11-29T11:27:17.246Z,10.23
2018-11-29T11:31:31.097Z,7.13
2018-11-29T11:35:38.788Z,9.13
2018-11-29T11:39:49.107Z,8.77
2018-11-29T11:43:55.920Z,9.17
2018-11-29T11:48:03.481Z,8.47
2018-11-29T11:52:11.324Z,9.07
2018-11-29T11:56:18.075Z,8.77
2018-11-29T12:00:29.320Z,6.53
2018-11-29T12:04:36.946Z,8.63
2018-11-29T12:08:46.796Z,8.30
2018-11-29T12:12:51.576Z,9.63
2018-11-29T12:16:58.827Z,8.37
2018-11-29T12:21:06.354Z,7.03
2018-11-29T12:25:17.653Z,9.13
2018-11-29T12:29:25.701Z,9.70
2018-11-29T12:33:33.983Z,9.30
2018-11-29T12:37:39.881Z,9.47
2018-11-29T12:41:46.377Z,9.27
2018-11-29T12:45:54.011Z,8.87
2018-11-29T12:50:00.647Z,9.97
2018-11-29T12:54:10.327Z,8.80
2018-11-29T12:58:17.005Z,9.20
2018-11-29T13:02:24.647Z,9.30
2018-11-29T13:06:32.024Z,8.50
2018-11-29T13:10:39.351Z,9.50
2018-11-29T13:14:48.195Z,8.10
2018-11-29T13:18:54.959Z,6.93
2018-11-29T13:23:02.288Z,9.37
2018-11-29T13:27:12.504Z,9.97
2018-11-29T13:31:20.437Z,8.37
2018-11-29T13:35:36.877Z,8.77
2018-11-29T13:39:43.740Z,9.90
2018-11-29T13:43:51.289Z,8.67
2018-11-29T13:47:57.983Z,11.57
2018-11-29T13:52:04.879Z,11.63
2018-11-29T13:56:11.512Z,11.13
2018-11-29T14:00:28.131Z,7.97
2018-11-29T14:04:35.463Z,11.90
2018-11-29T14:08:42.481Z,10.67
2018-11-29T14:12:53.054Z,11.60
2018-11-29T14:17:02.982Z,12.90
2018-11-29T14:21:09.484Z,10.10
2018-11-29T14:25:17.032Z,12.67
2018-11-29T14:29:24.937Z,12.23
2018-11-29T14:33:31.847Z,10.70
2018-11-29T14:37:42.524Z,12.20
2018-11-29T14:41:50.981Z,11.70
2018-11-29T14:45:58.359Z,13.77
2018-11-29T14:50:06.469Z,14.27
2018-11-29T14:54:13.005Z,10.63
2018-11-29T14:58:20.061Z,12.70
2018-11-29T15:02:26.627Z,16.93
2018-11-29T15:06:37.025Z,12.67
2018-11-29T15:10:45.201Z,13.00
2018-11-29T15:14:51.978Z,13.67
2018-11-29T15:18:58.477Z,11.50
2018-11-29T15:23:07.550Z,12.90
2018-11-29T15:27:18.287Z,10.63
2018-11-29T15:31:24.980Z,11.00
2018-11-29T15:35:33.594Z,13.20
2018-11-29T15:39:42.545Z,12.60
2018-11-29T15:44:41.789Z,11.97
2018-11-29T15:49:07.954Z,13.43
2018-11-29T15:53:14.853Z,19.03
2018-11-29T15:57:22.517Z,11.00
2018-11-29T16:01:29.318Z,11.30
2018-11-29T16:05:36.481Z,11.43
2018-11-29T16:09:44.765Z,10.87
2018-11-29T16:13:54.921Z,10.23
2018-11-29T16:18:03.769Z,10.97
2018-11-29T16:22:09.736Z,8.80
2018-11-29T16:26:16.552Z,10.27
2018-11-29T16:30:45.774Z,11.03
2018-11-29T16:34:52.641Z,8.97
2018-11-29T16:38:59.589Z,14.87
2018-11-29T16:43:08.122Z,17.30
2018-11-29T16:47:16.498Z,13.53
2018-11-29T16:51:23.252Z,15.80
2018-11-29T16:55:30.342Z,13.20
2018-11-29T16:59:37.132Z,11.23
2018-11-29T17:03:47.024Z,11.80
2018-11-29T17:07:54.663Z,9.17
2018-11-29T17:12:04.452Z,12.30
2018-11-29T17:16:11.250Z,9.87
2018-11-29T17:20:19.121Z,9.33
2018-11-29T17:24:25.993Z,8.67
2018-11-29T17:28:32.993Z,8.73
2018-11-29T17:32:39.784Z,9.07
2018-11-29T17:36:47.605Z,10.17
2018-11-29T17:40:57.307Z,8.67
2018-11-29T17:45:04.524Z,11.33
2018-11-29T17:49:13.651Z,12.93
2018-11-29T17:53:22.564Z,10.27
2018-11-29T17:57:29.353Z,7.20
2018-11-29T18:01:36.474Z,7.67
2018-11-29T18:05:44.148Z,9.87
2018-11-29T18:09:54.090Z,11.30
2018-11-29T18:14:00.871Z,13.47
2018-11-29T18:18:07.896Z,14.80
2018-11-29T18:22:14.741Z,11.80
2018-11-29T18:26:24.697Z,12.97
2018-11-29T18:30:30.742Z,11.10
2018-11-29T18:34:38.532Z,11.50
2018-11-29T18:38:45.311Z,13.03
2018-11-29T18:43:02.395Z,10.80
2018-11-29T18:47:09.986Z,12.77
2018-11-29T18:51:18.381Z,14.97
2018-11-29T18:55:26.190Z,14.53
2018-11-29T18:59:34.604Z,11.20
2018-11-29T19:03:41.487Z,9.63
2018-11-29T19:07:48.583Z,13.27
2018-11-29T19:11:58.284Z,12.27
2018-11-29T19:16:06.095Z,9.80
2018-11-29T19:20:16.098Z,8.77
2018-11-29T19:24:23.147Z,12.33
2018-11-29T19:28:31.628Z,11.30
2018-11-29T19:32:39.623Z,12.20
2018-11-29T19:36:47.572Z,9.17
2018-11-29T19:40:55.997Z,7.63
2018-11-29T19:45:02.915Z,9.93
2018-11-29T19:49:10.192Z,9.07
2018-11-29T19:53:26.913Z,11.17
2018-11-29T19:57:35.078Z,11.90
2018-11-29T20:01:41.950Z,12.77
2018-11-29T20:05:50.497Z,12.67
2018-11-29T20:10:00.096Z,11.87
2018-11-29T20:14:07.899Z,6.27
2018-11-29T20:18:15.308Z,6.57
2018-11-29T20:22:23.895Z,11.30
2018-11-29T20:26:30.687Z,10.50
2018-11-29T20:30:38.204Z,9.37
2018-11-29T20:34:50.445Z,8.53
2018-11-29T20:38:58.896Z,9.27
2018-11-29T20:43:05.695Z,8.33
2018-11-29T20:47:13.635Z,7.73
2018-11-29T20:51:20.781Z,10.93
2018-11-29T20:55:32.038Z,9.90
2018-11-29T20:59:38.829Z,8.53
2018-11-29T21:03:47.034Z,6.47
2018-11-29T21:07:55.319Z,6.13
2018-11-29T21:12:03.341Z,8.67
2018-11-29T21:16:10.173Z,8.27
2018-11-29T21:20:22.862Z,11.30
2018-11-29T21:24:32.106Z,7.17
2018-11-29T21:28:41.377Z,6.97
2018-11-29T21:32:48.530Z,6.97
2018-11-29T21:36:59.446Z,6.10
2018-11-29T21:41:07.432Z,10.40
2018-11-29T21:45:15.944Z,6.57
2018-11-29T21:49:22.749Z,9.27
2018-11-29T21:53:29.842Z,9.17
2018-11-29T21:57:36.698Z,8.07
2018-11-29T22:01:44.486Z,8.73
2018-11-29T22:05:51.292Z,9.43
2018-11-29T22:09:59.713Z,8.03
2018-11-29T22:14:09.523Z,8.03
2018-11-29T22:18:21.973Z,9.90
2018-11-29T22:26:36.669Z,8.77
2018-11-29T22:30:44.177Z,9.10
2018-11-29T22:34:51.537Z,9.17
2018-11-29T22:38:58.676Z,9.33
2018-11-29T22:43:05.644Z,9.10
2018-11-29T22:47:13.502Z,7.33
2018-11-29T22:51:21.778Z,6.83
2018-11-29T22:55:28.580Z,9.40
2018-11-29T22:59:35.473Z,9.47
2018-11-29T23:03:42.841Z,8.97
2018-11-29T23:07:51.134Z,7.83
2018-11-29T23:11:57.902Z,7.27
2018-11-29T23:16:05.540Z,7.33
2018-11-29T23:20:15.178Z,7.10
2018-11-29T23:24:23.315Z,6.80
2018-11-29T23:28:30.042Z,8.27
2018-11-29T23:32:37.255Z,7.40
2018-11-29T23:36:44.093Z,6.67
2018-11-29T23:40:52.630Z,7.00
2018-11-29T23:44:59.812Z,5.87
2018-11-29T23:49:07.095Z,8.57
2018-11-29T23:53:15.423Z,6.10
2018-11-29T23:57:23.859Z,8.17
